Time;durP1;ratioP1;P1;durP2;ratioP2;P2;SDS_P1;SDS_P2;PMS_P1;PMS_P2;Temp;Humidity;BMP_temperature;BMP_pressure;BME280_temperature;BME280_humidity;BME280_pressure;Samples;Min_cycle;Max_cycle;Signal;HPM_P1;HPM_P2
2021/06/12 00:00:12;;;;;;;10.63;1.00;;;;;;;20.50;95.12;100444.00;5033852;28;20469;-53
2021/06/12 00:02:39;;;;;;;0.50;0.30;;;;;;;20.22;95.91;100436.81;5033396;28;20452;-53
2021/06/12 00:05:09;;;;;;;1.17;1.07;;;;;;;20.29;96.17;100440.88;5033821;28;20478;-52
2021/06/12 00:07:35;;;;;;;0.50;0.20;;;;;;;20.32;95.54;100443.34;5026573;28;20507;-52
2021/06/12 00:10:08;;;;;;;2.93;1.47;;;;;;;20.15;96.18;100438.19;5027256;28;20484;-52
2021/06/12 00:12:35;;;;;;;0.50;0.30;;;;;;;20.05;97.21;100446.91;5026883;28;20459;-52
2021/06/12 00:15:08;;;;;;;0.50;0.30;;;;;;;20.08;96.77;100443.13;5028155;28;20459;-53
2021/06/12 00:17:34;;;;;;;0.50;0.30;;;;;;;19.96;97.10;100447.50;5032903;28;20992;-54
2021/06/12 00:20:04;;;;;;;0.50;0.30;;;;;;;19.78;97.88;100443.31;5033023;28;20941;-52
2021/06/12 00:22:30;;;;;;;0.60;0.50;;;;;;;19.95;97.21;100444.91;5032232;28;20496;-53
2021/06/12 00:24:57;;;;;;;0.60;0.53;;;;;;;20.04;96.90;100450.56;5033075;28;20506;-54
2021/06/12 00:27:24;;;;;;;0.50;0.30;;;;;;;19.79;98.08;100442.34;5033217;28;20896;-54
2021/06/12 00:29:50;;;;;;;0.77;0.50;;;;;;;19.64;99.29;100446.88;5030660;28;20531;-53
2021/06/12 00:32:17;;;;;;;0.50;0.30;;;;;;;19.74;98.90;100445.34;5019397;28;20484;-53
2021/06/12 00:34:43;;;;;;;0.50;0.20;;;;;;;19.76;98.96;100440.69;5028379;28;21022;-53
2021/06/12 00:37:10;;;;;;;0.70;0.70;;;;;;;19.48;100.00;100444.25;5024174;28;20515;-53
2021/06/12 00:39:37;;;;;;;0.50;0.20;;;;;;;19.58;100.00;100441.84;5028554;28;20440;-53
2021/06/12 00:42:04;;;;;;;0.60;0.47;;;;;;;19.75;99.93;100435.41;5033031;28;20448;-52
2021/06/12 00:44:31;;;;;;;0.50;0.20;;;;;;;19.88;99.41;100435.50;5032636;28;20513;-53
2021/06/12 00:46:58;;;;;;;0.40;0.20;;;;;;;19.56;100.00;100433.00;5032927;28;20506;-54
2021/06/12 00:49:24;;;;;;;0.50;0.30;;;;;;;19.77;100.00;100439.75;5032559;28;20964;-54
2021/06/12 00:51:51;;;;;;;0.50;0.20;;;;;;;19.64;100.00;100430.69;5032782;28;20541;-54
2021/06/12 00:54:18;;;;;;;0.40;0.20;;;;;;;19.61;100.00;100438.13;5031424;28;20448;-53
2021/06/12 00:56:44;;;;;;;0.90;0.90;;;;;;;19.35;100.00;100440.59;5032067;28;20513;-53
2021/06/12 00:59:11;;;;;;;0.50;0.30;;;;;;;19.67;100.00;100435.03;5032105;28;20455;-53
2021/06/12 01:01:48;;;;;;;0.50;0.20;;;;;;;19.59;100.00;100429.25;5032579;28;20916;-53
2021/06/12 01:04:15;;;;;;;0.50;0.20;;;;;;;19.65;100.00;100432.44;5019344;28;20448;-53
2021/06/12 01:06:43;;;;;;;0.50;0.30;;;;;;;19.60;100.00;100431.88;5031830;28;20452;-53
2021/06/12 01:09:09;;;;;;;0.50;0.37;;;;;;;19.47;100.00;100434.44;5032345;28;20454;-53
2021/06/12 01:11:44;;;;;;;0.50;0.20;;;;;;;19.53;100.00;100430.47;5032324;28;20561;-53
2021/06/12 01:14:16;;;;;;;0.50;0.30;;;;;;;19.60;100.00;100429.16;5032341;28;20454;-54
2021/06/12 01:16:48;;;;;;;0.50;0.27;;;;;;;19.33;100.00;100426.34;5032500;28;20443;-54
2021/06/12 01:19:31;;;;;;;0.50;0.30;;;;;;;19.49;100.00;100431.63;5032319;28;20447;-54
2021/06/12 01:22:03;;;;;;;0.50;0.20;;;;;;;19.44;100.00;100433.75;5032011;28;20490;-55
2021/06/12 01:24:56;;;;;;;3.43;2.20;;;;;;;19.28;100.00;100432.97;5032182;28;20930;-55
2021/06/12 01:27:41;;;;;;;0.50;0.20;;;;;;;19.53;100.00;100438.56;5021848;28;20480;-55
2021/06/12 01:30:08;;;;;;;0.50;0.20;;;;;;;19.49;100.00;100437.03;5027444;28;21004;-55
2021/06/12 01:32:39;;;;;;;0.50;0.20;;;;;;;19.31;100.00;100430.09;5017891;28;20842;-55
2021/06/12 01:35:10;;;;;;;0.50;0.20;;;;;;;19.35;100.00;100423.56;5030571;28;20470;-55
2021/06/12 01:37:41;;;;;;;0.40;0.20;;;;;;;19.35;100.00;100415.47;5019140;28;20989;-55
2021/06/12 01:40:09;;;;;;;0.50;0.20;;;;;;;19.26;100.00;100416.03;5031795;28;20467;-54
2021/06/12 01:42:39;;;;;;;0.40;0.20;;;;;;;19.23;100.00;100409.88;5031829;28;20456;-54
2021/06/12 01:45:06;;;;;;;0.50;0.40;;;;;;;19.08;100.00;100413.53;5031875;28;20448;-55
2021/06/12 01:47:33;;;;;;;0.53;0.53;;;;;;;19.08;100.00;100410.84;5031657;28;20491;-54
2021/06/12 01:50:06;;;;;;;0.50;0.20;;;;;;;18.77;100.00;100405.56;5032237;28;20452;-54
2021/06/12 01:52:37;;;;;;;0.50;0.30;;;;;;;18.79;100.00;100407.22;5031919;28;20501;-54
2021/06/12 01:55:04;;;;;;;0.50;0.30;;;;;;;19.00;100.00;100407.72;5031811;28;20506;-55
2021/06/12 01:57:32;;;;;;;0.47;0.20;;;;;;;19.06;100.00;100409.19;5031267;28;20471;-55
2021/06/12 02:00:00;;;;;;;0.50;0.20;;;;;;;18.92;100.00;100410.91;5032139;28;20933;-54
2021/06/12 02:02:28;;;;;;;0.50;0.30;;;;;;;18.79;100.00;100415.31;5028949;28;20445;-55
2021/06/12 02:04:55;;;;;;;0.50;0.50;;;;;;;18.91;100.00;100414.56;5022252;28;20910;-54
2021/06/12 02:07:23;;;;;;;0.50;0.20;;;;;;;18.79;100.00;100409.06;5030570;28;20478;-54
2021/06/12 02:09:51;;;;;;;0.43;0.30;;;;;;;18.97;100.00;100415.16;5030376;28;20458;-55
2021/06/12 02:12:19;;;;;;;1.30;1.10;;;;;;;19.11;100.00;100416.03;5031207;28;20491;-56
2021/06/12 02:14:47;;;;;;;1.03;1.03;;;;;;;19.10;100.00;100408.03;5031421;28;20983;-56
2021/06/12 02:17:16;;;;;;;0.50;0.40;;;;;;;19.00;100.00;100409.56;5031281;28;20475;-55
2021/06/12 02:19:43;;;;;;;0.47;0.30;;;;;;;18.76;100.00;100403.84;5031071;28;20965;-55
2021/06/12 02:22:10;;;;;;;1.67;1.07;;;;;;;18.48;100.00;100393.81;5031418;28;20455;-54
2021/06/12 02:24:37;;;;;;;0.40;0.20;;;;;;;18.71;100.00;100397.88;5031360;28;20824;-54
2021/06/12 02:27:07;;;;;;;0.50;0.40;;;;;;;18.49;100.00;100398.25;5031441;28;20475;-55
2021/06/12 02:29:36;;;;;;;0.60;0.60;;;;;;;18.52;100.00;100395.41;5028588;28;20456;-55
2021/06/12 02:32:09;;;;;;;0.50;0.50;;;;;;;18.80;100.00;100400.03;5024782;28;20499;-55
2021/06/12 02:34:37;;;;;;;0.50;0.47;;;;;;;18.70;100.00;100407.78;5022532;28;20459;-55
2021/06/12 02:37:06;;;;;;;0.50;0.30;;;;;;;18.48;100.00;100407.28;5011972;28;20480;-55
2021/06/12 02:39:34;;;;;;;0.63;0.63;;;;;;;18.83;100.00;100421.38;5026941;28;20454;-55
2021/06/12 02:42:01;;;;;;;0.60;0.30;;;;;;;18.45;100.00;100413.72;5031334;28;20535;-55
2021/06/12 02:44:28;;;;;;;0.40;0.20;;;;;;;18.22;100.00;100408.81;5031077;28;20482;-55
2021/06/12 02:49:33;;;;;;;0.40;0.20;;;;;;;18.58;100.00;100412.03;5010413;28;20485;-55
2021/06/12 02:52:05;;;;;;;1.73;0.83;;;;;;;18.34;100.00;100417.03;5006697;28;20487;-55
2021/06/12 02:54:32;;;;;;;0.40;0.20;;;;;;;18.36;100.00;100422.31;5015537;28;20841;-55
2021/06/12 02:57:00;;;;;;;0.40;0.20;;;;;;;18.37;100.00;100415.16;5015310;28;20530;-56
2021/06/12 02:59:30;;;;;;;0.40;0.20;;;;;;;18.16;100.00;100417.25;5015346;28;20502;-56
2021/06/12 03:01:59;;;;;;;1.23;1.23;;;;;;;18.28;100.00;100405.78;5003755;28;20862;-54
2021/06/12 03:04:26;;;;;;;0.50;0.20;;;;;;;18.48;100.00;100404.59;5015087;28;20960;-55
2021/06/12 03:06:54;;;;;;;0.50;0.50;;;;;;;18.43;100.00;100409.41;5015394;28;20511;-55
2021/06/12 03:09:24;;;;;;;0.50;0.20;;;;;;;18.23;100.00;100422.22;5015343;28;20452;-54
2021/06/12 03:11:54;;;;;;;1.03;0.63;;;;;;;17.97;100.00;100410.25;5014916;28;20488;-54
2021/06/12 03:14:24;;;;;;;0.53;0.50;;;;;;;18.21;100.00;100412.47;5015633;28;20449;-54
2021/06/12 03:16:51;;;;;;;2.00;2.00;;;;;;;17.99;100.00;100419.09;5015437;28;20452;-55
2021/06/12 03:19:20;;;;;;;0.50;0.30;;;;;;;17.81;100.00;100428.19;5015528;28;20480;-54
2021/06/12 03:21:48;;;;;;;0.50;0.40;;;;;;;17.82;100.00;100421.00;5013771;28;20449;-54
2021/06/12 03:24:15;;;;;;;0.40;0.20;;;;;;;17.72;100.00;100424.22;5003954;28;20464;-54
2021/06/12 03:26:42;;;;;;;0.40;0.20;;;;;;;17.65;100.00;100417.41;5014914;28;20476;-55
2021/06/12 03:29:10;;;;;;;0.40;0.30;;;;;;;17.87;100.00;100429.69;5014804;28;20472;-54
2021/06/12 03:31:38;;;;;;;0.40;0.20;;;;;;;17.71;100.00;100429.69;5009417;28;20558;-54
2021/06/12 03:34:05;;;;;;;0.40;0.20;;;;;;;17.65;100.00;100435.34;5015140;28;20457;-54
2021/06/12 03:36:32;;;;;;;0.40;0.30;;;;;;;17.72;100.00;100434.09;5014625;28;20824;-53
2021/06/12 03:38:59;;;;;;;0.40;0.20;;;;;;;17.83;100.00;100441.56;5015468;28;20476;-53
2021/06/12 03:41:26;;;;;;;0.40;0.20;;;;;;;17.73;100.00;100435.84;5015420;28;20479;-54
2021/06/12 03:43:52;;;;;;;0.60;0.60;;;;;;;17.57;100.00;100440.31;5017263;28;21023;-53
2021/06/12 03:46:20;;;;;;;3.90;1.00;;;;;;;17.73;100.00;100444.78;5016588;28;20459;-54
2021/06/12 03:48:49;;;;;;;4.00;1.80;;;;;;;17.90;100.00;100445.63;5015689;28;20516;-57
2021/06/12 03:51:19;;;;;;;0.40;0.20;;;;;;;17.73;100.00;100449.28;5015749;28;21012;-54
2021/06/12 03:53:47;;;;;;;0.40;0.20;;;;;;;17.78;100.00;100452.56;5016506;28;20480;-53
2021/06/12 03:56:16;;;;;;;0.40;0.30;;;;;;;18.05;100.00;100455.53;5014141;28;20530;-54
2021/06/12 03:58:46;;;;;;;0.50;0.30;;;;;;;17.98;100.00;100455.03;5014268;28;20850;-52
2021/06/12 04:01:15;;;;;;;0.40;0.30;;;;;;;17.92;100.00;100454.50;5011198;28;20497;-54
2021/06/12 04:03:42;;;;;;;0.40;0.20;;;;;;;18.01;100.00;100444.09;5010241;28;20516;-54
2021/06/12 04:06:10;;;;;;;0.50;0.30;;;;;;;18.09;100.00;100448.16;5014990;28;20528;-54
2021/06/12 04:08:38;;;;;;;0.40;0.20;;;;;;;18.10;100.00;100450.78;5013918;28;20993;-54
2021/06/12 04:11:06;;;;;;;0.67;0.67;;;;;;;18.09;100.00;100461.59;5014570;28;20516;-54
2021/06/12 04:13:32;;;;;;;0.40;0.20;;;;;;;18.02;100.00;100461.97;5016011;28;20452;-53
2021/06/12 04:15:59;;;;;;;0.53;0.47;;;;;;;18.12;100.00;100454.25;5009142;28;20450;-54
2021/06/12 04:18:26;;;;;;;0.40;0.20;;;;;;;18.30;100.00;100455.00;5009420;28;20956;-51
2021/06/12 04:20:52;;;;;;;0.40;0.20;;;;;;;18.37;100.00;100464.47;5014883;28;20909;-54
2021/06/12 04:23:19;;;;;;;0.50;0.37;;;;;;;18.27;100.00;100465.94;5015169;28;21185;-54
2021/06/12 04:25:47;;;;;;;0.47;0.20;;;;;;;18.38;100.00;100457.25;5015318;28;20519;-54
2021/06/12 04:28:14;;;;;;;0.40;0.20;;;;;;;18.46;100.00;100455.84;5014751;28;20847;-54
2021/06/12 04:30:40;;;;;;;0.40;0.20;;;;;;;18.67;100.00;100461.84;5013278;28;20870;-54
2021/06/12 04:33:08;;;;;;;0.40;0.20;;;;;;;18.69;100.00;100467.13;5010757;28;20535;-54
2021/06/12 04:35:34;;;;;;;1.13;1.13;;;;;;;18.83;100.00;100468.03;5014644;28;20453;-54
2021/06/12 04:38:01;;;;;;;0.40;0.20;;;;;;;18.84;100.00;100467.06;5013343;28;20997;-54
2021/06/12 04:40:31;;;;;;;0.40;0.20;;;;;;;19.43;100.00;100475.16;5013924;28;20452;-53
2021/06/12 04:42:58;;;;;;;0.40;0.20;;;;;;;19.75;100.00;100475.88;5013491;28;20933;-54
2021/06/12 04:45:26;;;;;;;0.40;0.30;;;;;;;20.30;98.78;100475.00;5013735;28;20460;-54
2021/06/12 04:47:53;;;;;;;2.20;0.73;;;;;;;20.74;95.98;100474.75;5013643;28;20527;-54
2021/06/12 04:50:19;;;;;;;0.50;0.40;;;;;;;21.10;93.78;100478.59;5014947;28;20464;-54
2021/06/12 04:52:46;;;;;;;0.43;0.30;;;;;;;21.27;92.12;100475.63;5013785;28;20496;-54
2021/06/12 04:55:13;;;;;;;0.50;0.30;;;;;;;21.35;92.41;100486.75;5013273;28;20484;-54
2021/06/12 04:57:40;;;;;;;0.50;0.30;;;;;;;21.38;92.68;100481.16;5012987;28;20476;-54
2021/06/12 05:00:09;;;;;;;0.50;0.33;;;;;;;21.70;90.92;100480.69;5013299;28;20515;-54
2021/06/12 05:02:38;;;;;;;0.57;0.50;;;;;;;21.84;90.44;100481.44;5001540;28;20460;-54
2021/06/12 05:05:09;;;;;;;0.47;0.20;;;;;;;22.05;89.32;100476.31;5012769;28;20452;-55
2021/06/12 05:07:36;;;;;;;9.83;1.90;;;;;;;21.63;91.03;100471.28;5013022;28;20480;-54
2021/06/12 05:10:04;;;;;;;0.50;0.40;;;;;;;21.53;92.64;100477.38;5012616;28;20448;-54
2021/06/12 05:12:31;;;;;;;0.60;0.40;;;;;;;21.44;93.64;100477.16;5012828;28;20496;-54
2021/06/12 05:15:01;;;;;;;0.50;0.20;;;;;;;21.47;93.94;100476.91;5012806;28;20459;-54
2021/06/12 05:17:29;;;;;;;0.50;0.20;;;;;;;22.02;90.85;100479.22;5012666;28;20472;-55
2021/06/12 05:19:56;;;;;;;0.50;0.20;;;;;;;22.34;89.81;100478.72;5012667;28;20455;-55
2021/06/12 05:22:25;;;;;;;0.73;0.73;;;;;;;22.66;87.60;100474.47;5011549;28;20452;-55
2021/06/12 05:24:53;;;;;;;0.70;0.63;;;;;;;22.75;86.24;100479.19;5012816;28;20449;-55
2021/06/12 05:27:20;;;;;;;0.50;0.20;;;;;;;22.42;87.52;100471.75;5012754;28;20487;-55
2021/06/12 05:29:47;;;;;;;0.50;0.20;;;;;;;22.47;87.81;100485.81;5012470;28;20452;-55
2021/06/12 05:32:15;;;;;;;0.50;0.30;;;;;;;22.39;87.42;100476.53;5006708;28;20492;-55
2021/06/12 05:34:42;;;;;;;0.50;0.30;;;;;;;22.39;88.02;100476.53;5012699;28;20511;-55
2021/06/12 05:37:10;;;;;;;0.50;0.20;;;;;;;22.74;88.10;100473.88;5012096;28;20972;-55
2021/06/12 05:39:37;;;;;;;0.50;0.30;;;;;;;22.64;87.79;100478.28;5012277;28;20452;-54
2021/06/12 05:42:04;;;;;;;0.87;0.87;;;;;;;22.89;86.30;100477.28;5012425;28;20453;-54
2021/06/12 05:44:31;;;;;;;0.80;0.80;;;;;;;22.61;88.32;100478.50;5011993;28;20621;-55
2021/06/12 05:46:58;;;;;;;0.50;0.30;;;;;;;22.37;88.41;100482.09;5003134;28;20480;-54
2021/06/12 05:49:25;;;;;;;0.50;0.23;;;;;;;22.72;86.79;100497.53;5008556;28;20465;-55
2021/06/12 05:51:51;;;;;;;0.50;0.30;;;;;;;22.75;87.39;100492.75;5003237;28;20493;-55
2021/06/12 05:54:18;;;;;;;0.50;0.20;;;;;;;22.70;87.17;100503.06;4995340;28;20461;-55
2021/06/12 05:56:44;;;;;;;0.50;0.20;;;;;;;23.21;85.77;100491.94;5012077;28;20515;-55
2021/06/12 05:59:11;;;;;;;0.47;0.20;;;;;;;23.68;83.31;100513.63;5011893;28;20480;-55
2021/06/12 06:01:38;;;;;;;0.50;0.30;;;;;;;23.00;85.68;100509.88;5002931;28;20449;-55
2021/06/12 06:04:05;;;;;;;0.47;0.23;;;;;;;23.09;85.46;100509.16;5008380;28;20926;-54
2021/06/12 06:06:31;;;;;;;0.50;0.20;;;;;;;23.33;84.31;100498.25;5012088;28;20504;-55
2021/06/12 06:08:58;;;;;;;0.50;0.20;;;;;;;23.05;85.29;100507.69;5011748;28;20476;-55
2021/06/12 06:11:25;;;;;;;0.70;0.63;;;;;;;23.54;84.06;100517.41;5011746;28;20448;-55
2021/06/12 06:13:51;;;;;;;0.53;0.33;;;;;;;23.86;82.43;100518.47;5011817;28;20949;-54
2021/06/12 06:16:18;;;;;;;0.50;0.30;;;;;;;24.42;80.85;100525.75;5012064;28;20449;-55
2021/06/12 06:18:44;;;;;;;0.50;0.30;;;;;;;24.48;80.72;100512.50;5011528;28;20468;-56
2021/06/12 06:21:12;;;;;;;0.50;0.30;;;;;;;24.57;78.77;100510.00;5011962;28;20456;-55
2021/06/12 06:23:39;;;;;;;0.50;0.20;;;;;;;24.83;78.09;100514.13;5011709;28;20452;-55
2021/06/12 06:26:05;;;;;;;0.50;0.23;;;;;;;25.16;77.33;100504.97;5011673;28;20452;-55
2021/06/12 06:28:32;;;;;;;0.50;0.40;;;;;;;25.04;76.52;100501.44;5011850;28;20538;-55
2021/06/12 06:30:59;;;;;;;0.50;0.30;;;;;;;24.82;78.62;100509.69;5007823;28;20957;-55
2021/06/12 06:33:25;;;;;;;0.50;0.20;;;;;;;25.04;76.26;100501.44;5009923;28;20496;-55
2021/06/12 06:35:53;;;;;;;0.47;0.20;;;;;;;25.01;75.83;100500.84;5011767;28;20456;-55
2021/06/12 06:38:20;;;;;;;0.47;0.20;;;;;;;24.98;75.06;100496.50;5010598;28;20985;-56
2021/06/12 06:40:48;;;;;;;0.60;0.50;;;;;;;25.09;76.43;100495.63;5011457;28;20468;-55
2021/06/12 06:43:15;;;;;;;0.50;0.30;;;;;;;25.27;74.86;100506.75;5011336;28;20451;-56
2021/06/12 06:45:42;;;;;;;0.50;0.30;;;;;;;24.81;74.71;100516.97;5011588;28;20866;-56
2021/06/12 06:48:10;;;;;;;0.50;0.30;;;;;;;24.78;75.89;100522.66;5011868;28;20514;-55
2021/06/12 06:50:37;;;;;;;0.50;0.30;;;;;;;25.09;76.79;100520.97;5011585;28;20449;-55
2021/06/12 06:53:04;;;;;;;0.70;0.70;;;;;;;25.12;75.93;100518.97;5010018;28;20538;-55
2021/06/12 06:55:31;;;;;;;0.50;0.20;;;;;;;24.94;76.09;100522.22;5010255;28;20918;-57
2021/06/12 06:57:58;;;;;;;0.50;0.37;;;;;;;24.70;76.92;100524.31;4985981;28;20548;-55
2021/06/12 07:00:26;;;;;;;1.47;0.77;;;;;;;25.04;75.29;100525.06;5011407;28;20452;-55
2021/06/12 07:02:54;;;;;;;0.50;0.30;;;;;;;25.32;74.50;100520.81;4999231;28;20959;-55
2021/06/12 07:05:22;;;;;;;0.50;0.20;;;;;;;25.26;73.41;100522.22;5011324;28;20483;-55
2021/06/12 07:07:48;;;;;;;0.50;0.30;;;;;;;25.20;74.66;100509.13;5011161;28;20472;-55
2021/06/12 07:10:15;;;;;;;0.50;0.30;;;;;;;25.23;73.25;100513.47;5011446;28;20461;-55
2021/06/12 07:12:42;;;;;;;0.60;0.53;;;;;;;24.86;74.11;100497.53;5009815;28;21083;-56
2021/06/12 07:15:10;;;;;;;0.50;0.20;;;;;;;25.20;73.29;100492.81;5011669;28;20449;-55
2021/06/12 07:17:38;;;;;;;0.50;0.23;;;;;;;25.12;74.12;100500.78;5011297;28;20510;-55
2021/06/12 07:20:07;;;;;;;0.50;0.40;;;;;;;24.90;74.59;100493.56;5011077;28;21007;-55
2021/06/12 07:22:34;;;;;;;3.23;0.97;;;;;;;25.22;74.49;100493.56;5009938;28;20452;-56
2021/06/12 07:25:01;;;;;;;0.50;0.30;;;;;;;25.27;74.86;100487.72;5011131;28;20507;-56
2021/06/12 07:27:27;;;;;;;0.60;0.60;;;;;;;25.56;74.37;100483.31;5011396;28;20846;-55
2021/06/12 07:29:54;;;;;;;0.50;0.50;;;;;;;25.49;75.39;100486.69;5011317;28;20502;-56
2021/06/12 07:32:21;;;;;;;1.00;1.00;;;;;;;25.79;73.39;100483.16;5007046;28;20514;-56
2021/06/12 07:34:47;;;;;;;0.50;0.20;;;;;;;25.76;73.33;100480.69;5014590;28;20448;-53
2021/06/12 07:37:14;;;;;;;0.50;0.30;;;;;;;25.95;72.30;100467.16;5013726;28;20460;-53
2021/06/12 07:39:41;;;;;;;0.60;0.40;;;;;;;26.15;73.05;100473.53;5014670;28;20890;-54
2021/06/12 07:42:08;;;;;;;0.50;0.30;;;;;;;25.84;73.97;100476.28;5014766;28;20502;-53
2021/06/12 07:44:34;;;;;;;0.50;0.30;;;;;;;26.31;71.67;100473.84;5014312;28;21655;-53
2021/06/12 07:47:01;;;;;;;0.73;0.73;;;;;;;26.37;71.98;100469.75;5014487;28;20460;-53
2021/06/12 07:49:28;;;;;;;1.00;1.00;;;;;;;26.10;71.77;100476.69;5014105;28;20465;-53
2021/06/12 07:51:54;;;;;;;1.03;1.03;;;;;;;26.37;70.18;100480.66;5014254;28;20460;-53
2021/06/12 07:54:22;;;;;;;0.50;0.30;;;;;;;26.95;68.50;100486.16;5014583;28;20452;-53
2021/06/12 07:56:48;;;;;;;0.50;0.30;;;;;;;26.88;68.54;100485.03;5013542;28;20448;-53
2021/06/12 07:59:15;;;;;;;0.50;0.30;;;;;;;27.34;66.90;100476.09;5014681;28;20476;-53
2021/06/12 08:01:42;;;;;;;0.50;0.30;;;;;;;26.80;68.50;100474.81;5005399;28;20470;-52
2021/06/12 08:04:10;;;;;;;0.60;0.60;;;;;;;26.98;67.69;100474.94;5011291;28;20949;-55
2021/06/12 08:06:37;;;;;;;0.50;0.30;;;;;;;26.80;69.85;100478.41;5013912;28;20879;-56
2021/06/12 08:09:04;;;;;;;0.63;0.63;;;;;;;26.85;68.10;100483.41;5014403;28;20495;-55
2021/06/12 08:11:31;;;;;;;0.47;0.20;;;;;;;26.90;68.84;100477.53;5014785;28;20468;-57
2021/06/12 08:13:57;;;;;;;0.50;0.20;;;;;;;27.01;66.94;100478.28;5014381;28;20488;-57
2021/06/12 08:16:24;;;;;;;0.63;0.57;;;;;;;27.15;67.39;100477.00;5014657;28;20483;-57
2021/06/12 08:18:52;;;;;;;0.50;0.30;;;;;;;27.60;68.10;100474.44;5013849;28;20476;-58
2021/06/12 08:21:21;;;;;;;1.50;1.13;;;;;;;27.24;66.52;100470.63;5014752;28;20449;-58
2021/06/12 08:23:48;;;;;;;0.50;0.30;;;;;;;26.49;68.57;100464.03;5014009;28;20933;-58
2021/06/12 08:26:15;;;;;;;0.50;0.30;;;;;;;26.99;68.03;100468.47;5014391;28;20452;-59
2021/06/12 08:28:42;;;;;;;0.50;0.30;;;;;;;27.07;68.21;100468.66;5013872;28;20468;-58
2021/06/12 08:31:09;;;;;;;0.50;0.30;;;;;;;26.98;68.90;100474.94;4995914;28;20457;-58
2021/06/12 08:33:35;;;;;;;0.50;0.40;;;;;;;27.04;67.32;100475.28;4988664;28;20543;-58
2021/06/12 08:36:04;;;;;;;0.63;0.57;;;;;;;27.10;66.21;100479.28;5014315;28;20524;-58
2021/06/12 08:38:31;;;;;;;0.50;0.20;;;;;;;27.29;66.70;100470.22;5014038;28;20469;-58
2021/06/12 08:40:58;;;;;;;0.50;0.30;;;;;;;27.79;63.25;100473.50;5014085;28;20950;-58
2021/06/12 08:43:27;;;;;;;0.50;0.27;;;;;;;27.77;62.34;100482.88;5011892;28;20801;-58
2021/06/12 08:45:55;;;;;;;0.50;0.30;;;;;;;27.73;61.87;100479.59;5013978;28;20489;-58
2021/06/12 08:48:23;;;;;;;0.50;0.20;;;;;;;27.49;62.06;100479.19;5047842;22;20501;-54
2021/06/12 08:50:50;;;;;;;0.87;0.77;;;;;;;27.74;61.27;100484.03;5073635;28;20454;-54
2021/06/12 08:53:17;;;;;;;0.50;0.30;;;;;;;27.95;61.50;100490.13;5073257;28;20531;-54
2021/06/12 08:55:45;;;;;;;0.50;0.30;;;;;;;28.21;60.00;100481.22;5072940;28;20447;-54
2021/06/12 08:58:13;;;;;;;0.50;0.30;;;;;;;28.47;59.31;100490.44;5073077;28;20469;-54
2021/06/12 09:00:41;;;;;;;0.50;0.30;;;;;;;28.42;57.63;100489.19;5057566;28;20455;-54
2021/06/12 09:03:20;;;;;;;0.40;0.20;;;;;;;28.40;57.25;100474.81;5053629;28;20421;-54
2021/06/12 09:05:48;;;;;;;0.50;0.40;;;;;;;28.39;57.34;100481.31;5053501;28;20450;-54
2021/06/12 09:08:20;;;;;;;0.50;0.30;;;;;;;28.61;56.42;100473.50;5053137;28;20804;-54
2021/06/12 09:10:56;;;;;;;0.50;0.30;;;;;;;28.62;57.24;100482.56;5052884;28;20579;-54
2021/06/12 09:13:37;;;;;;;0.40;0.30;;;;;;;28.58;56.84;100484.75;5052548;28;20490;-55
2021/06/12 09:16:05;;;;;;;0.40;0.30;;;;;;;28.66;56.00;100483.13;5052828;28;20496;-54
2021/06/12 09:18:37;;;;;;;0.50;0.30;;;;;;;28.79;55.17;100478.13;5051316;28;20445;-54
2021/06/12 09:21:08;;;;;;;0.60;0.60;;;;;;;28.67;53.65;100473.91;5062951;28;20816;-54
2021/06/12 09:23:42;;;;;;;0.50;0.30;;;;;;;28.53;53.86;100469.84;5053874;28;20890;-54
2021/06/12 09:26:10;;;;;;;0.50;0.30;;;;;;;28.13;53.86;100486.59;5053002;28;20451;-54
2021/06/12 09:28:46;;;;;;;2.87;0.73;;;;;;;28.06;55.18;100488.22;5052281;28;20497;-54
2021/06/12 09:31:21;;;;;;;0.50;0.30;;;;;;;28.09;55.02;100483.28;5050851;28;20461;-55
2021/06/12 09:33:49;;;;;;;0.50;0.30;;;;;;;28.41;54.01;100488.34;5052037;28;20557;-54
2021/06/12 09:36:16;;;;;;;0.50;0.30;;;;;;;28.25;54.10;100478.06;5051932;28;20469;-55
2021/06/12 09:38:43;;;;;;;0.50;0.30;;;;;;;28.85;53.37;100466.56;5052589;28;20558;-55
2021/06/12 09:41:29;;;;;;;0.50;0.30;;;;;;;28.68;53.32;100465.53;5052530;28;20823;-55
2021/06/12 09:43:56;;;;;;;0.50;0.47;;;;;;;29.09;50.97;100479.63;5052123;28;20491;-55
2021/06/12 09:46:41;;;;;;;0.50;0.30;;;;;;;29.13;50.10;100470.06;5052118;28;20469;-55
2021/06/12 09:49:11;;;;;;;0.50;0.30;;;;;;;29.03;51.91;100477.50;5052043;28;20453;-55
2021/06/12 09:51:38;;;;;;;0.50;0.30;;;;;;;29.42;50.35;100478.00;5052683;28;20425;-55
2021/06/12 09:54:06;;;;;;;0.50;0.30;;;;;;;28.97;50.35;100473.53;5051794;28;20876;-54
2021/06/12 09:56:33;;;;;;;0.50;0.30;;;;;;;29.57;49.07;100472.81;5051795;28;20421;-55
2021/06/12 09:59:15;;;;;;;0.50;0.30;;;;;;;29.18;49.27;100478.66;5065434;28;20501;-55
2021/06/12 10:01:48;;;;;;;0.63;0.50;;;;;;;28.98;49.24;100469.78;5051842;28;20478;-55
2021/06/12 10:04:16;;;;;;;0.50;0.30;;;;;;;29.27;49.92;100474.13;5051671;28;20440;-55
2021/06/12 10:06:43;;;;;;;0.50;0.30;;;;;;;29.37;49.26;100474.88;5051930;28;20483;-55
2021/06/12 10:09:10;;;;;;;0.50;0.30;;;;;;;29.75;48.94;100470.88;5051665;28;20441;-55
2021/06/12 10:11:37;;;;;;;0.50;0.30;;;;;;;29.79;47.55;100466.78;5052109;28;20425;-55
2021/06/12 10:14:05;;;;;;;0.50;0.30;;;;;;;29.45;47.83;100470.28;5051616;28;20490;-54
2021/06/12 10:16:39;;;;;;;0.50;0.30;;;;;;;29.80;47.56;100473.97;5051925;28;20907;-55
2021/06/12 10:19:08;;;;;;;0.47;0.30;;;;;;;29.92;46.26;100472.66;5052102;28;20569;-55
2021/06/12 10:21:34;;;;;;;0.47;0.30;;;;;;;29.66;46.22;100463.63;5053046;28;20524;-54
2021/06/12 10:24:06;;;;;;;0.50;0.20;;;;;;;29.48;46.72;100466.44;5063463;28;20439;-55
2021/06/12 10:26:34;;;;;;;0.40;0.30;;;;;;;29.92;47.06;100458.09;5051877;28;20447;-55
2021/06/12 10:29:02;;;;;;;0.50;0.30;;;;;;;30.02;45.22;100462.44;5051689;28;20470;-55
2021/06/12 10:31:35;;;;;;;0.50;0.27;;;;;;;30.01;44.38;100462.56;5051522;28;20454;-55
2021/06/12 10:34:02;;;;;;;0.50;0.30;;;;;;;29.99;44.55;100467.38;5051848;28;20487;-55
2021/06/12 10:36:32;;;;;;;0.50;0.30;;;;;;;29.63;45.29;100464.81;5050764;28;20465;-55
2021/06/12 10:39:00;;;;;;;0.50;0.30;;;;;;;29.20;45.34;100458.34;5051857;28;20474;-55
2021/06/12 10:41:34;;;;;;;0.50;0.30;;;;;;;29.57;44.19;100472.81;5051699;28;20458;-55
2021/06/12 10:44:03;;;;;;;0.50;0.30;;;;;;;29.78;45.29;100478.75;5064349;28;20519;-55
2021/06/12 10:46:34;;;;;;;0.50;0.30;;;;;;;29.64;44.74;100485.72;5052001;28;20453;-55
2021/06/12 10:49:03;;;;;;;0.50;0.30;;;;;;;29.52;46.04;100480.66;5051495;28;20540;-55
2021/06/12 10:51:33;;;;;;;0.50;0.30;;;;;;;29.73;45.13;100481.97;5051515;28;20504;-56
2021/06/12 10:54:18;;;;;;;0.47;0.30;;;;;;;29.94;43.37;100483.47;5051698;28;20878;-55
2021/06/12 10:56:48;;;;;;;0.50;0.30;;;;;;;30.13;42.57;100483.22;5051243;28;20443;-54
2021/06/12 10:59:47;;;;;;;0.50;0.30;;;;;;;29.61;44.46;100487.94;5055386;28;20474;-55
2021/06/12 11:05:00;;;;;;;0.50;0.50;;;;;;;29.46;44.30;100479.38;5051030;28;20989;-54
2021/06/12 11:07:38;;;;;;;0.50;0.30;;;;;;;29.30;44.83;100482.88;5052655;28;20473;-55
2021/06/12 11:10:14;;;;;;;0.50;0.30;;;;;;;28.90;45.93;100470.56;5055643;28;20450;-55
2021/06/12 11:12:45;;;;;;;0.50;0.30;;;;;;;29.21;46.22;100481.09;5066536;28;20950;-55
2021/06/12 11:15:21;;;;;;;0.50;0.30;;;;;;;29.70;45.06;100476.81;5054699;28;21022;-55
2021/06/12 11:18:09;;;;;;;0.50;0.30;;;;;;;29.40;45.71;100474.56;5054666;28;20441;-54
2021/06/12 11:20:36;;;;;;;1.07;1.03;;;;;;;29.54;45.16;100474.00;5041891;28;20479;-55
2021/06/12 11:23:05;;;;;;;0.50;0.30;;;;;;;30.16;44.21;100479.31;5055087;28;20442;-55
2021/06/12 11:25:37;;;;;;;0.40;0.30;;;;;;;30.02;44.76;100483.53;5055131;28;20918;-55
2021/06/12 11:28:24;;;;;;;0.50;0.30;;;;;;;29.85;45.56;100471.59;5054671;28;20522;-55
2021/06/12 11:30:54;;;;;;;0.70;0.70;;;;;;;30.15;45.33;100481.16;5064865;28;20825;-55
2021/06/12 11:33:21;;;;;;;0.60;0.43;;;;;;;29.95;44.90;100471.47;5054929;28;20497;-54